Time;durP1;ratioP1;P1;durP2;ratioP2;P2;SDS_P1;SDS_P2;PMS_P1;PMS_P2;Temp;Humidity;BMP_temperature;BMP_pressure;BME280_temperature;BME280_humidity;BME280_pressure;Samples;Min_cycle;Max_cycle;Signal;HPM_P1;HPM_P2
2022/06/27 00:02:06;;;;;;;;;2.67;1.67;;;;;20.82;47.94;101234.94;5056168;28;64404;-58
2022/06/27 00:04:31;;;;;;;;;3.33;2.00;;;;;20.79;48.04;101214.44;5059190;28;63598;-58
2022/06/27 00:06:56;;;;;;;;;2.00;2.00;;;;;20.78;47.61;101222.66;5056723;28;65259;-58
2022/06/27 00:09:22;;;;;;;;;2.67;2.00;;;;;20.76;48.11;101219.25;5057023;28;46000;-58
2022/06/27 00:11:47;;;;;;;;;1.33;1.00;;;;;20.75;47.93;101212.13;5047862;28;69851;-58
2022/06/27 00:14:13;;;;;;;;;2.00;1.33;;;;;20.73;48.16;101216.81;5061395;28;63001;-58
2022/06/27 00:16:39;;;;;;;;;0.67;0.67;;;;;20.71;48.38;101216.94;5065683;27;45392;-58
2022/06/27 00:19:04;;;;;;;;;1.00;1.00;;;;;20.70;47.87;101222.50;5051780;28;71481;-58
2022/06/27 00:21:29;;;;;;;;;2.67;2.67;;;;;20.66;48.26;101224.56;5048590;28;45432;-58
2022/06/27 00:23:55;;;;;;;;;2.00;2.00;;;;;20.65;47.84;101218.31;5053454;28;45343;-58
2022/06/27 00:26:20;;;;;;;;;2.00;2.00;;;;;20.64;47.90;101222.00;5047270;28;66077;-58
2022/06/27 00:28:45;;;;;;;;;1.00;1.00;;;;;20.64;48.10;101222.00;5054330;28;69103;-58
2022/06/27 00:31:11;;;;;;;;;3.00;3.00;;;;;20.62;48.12;101218.59;5057524;28;59482;-58
2022/06/27 00:33:36;;;;;;;;;1.33;1.33;;;;;20.61;48.50;101219.56;5057170;28;63319;-58
2022/06/27 00:36:01;;;;;;;;;1.00;1.00;;;;;20.58;48.53;101217.13;5052168;28;65673;-58
2022/06/27 00:38:27;;;;;;;;;2.00;2.00;;;;;20.57;48.60;101206.44;5056728;28;71694;-58
2022/06/27 00:40:52;;;;;;;;;2.00;2.00;;;;;20.55;48.92;101205.72;5046781;28;62112;-58
2022/06/27 00:43:17;;;;;;;;;2.00;2.00;;;;;20.52;48.46;101206.84;5061624;28;45315;-58
2022/06/27 00:45:43;;;;;;;;;2.33;1.00;;;;;20.49;48.96;101204.41;5064917;27;62536;-59
2022/06/27 00:48:08;;;;;;;;;2.00;2.00;;;;;20.46;48.64;101212.78;5060325;28;72802;-58
2022/06/27 00:50:34;;;;;;;;;1.33;1.33;;;;;20.45;48.46;101213.75;5052185;27;66673;-59
2022/06/27 00:52:59;;;;;;;;;1.33;1.33;;;;;20.43;48.69;101224.69;5061541;28;63550;-58
2022/06/27 00:55:24;;;;;;;;;3.33;2.00;;;;;20.40;48.84;101224.97;5051159;28;67908;-59
2022/06/27 00:57:50;;;;;;;;;1.67;1.67;;;;;20.35;48.57;101229.03;5060593;28;46231;-58
2022/06/27 01:00:16;;;;;;;;;2.00;1.00;;;;;20.30;48.77;101224.03;5060732;28;63717;-59
2022/06/27 01:02:42;;;;;;;;;2.67;2.67;;;;;20.29;49.50;101227.72;5061995;28;45835;-59
2022/06/27 01:05:08;;;;;;;;;1.67;1.67;;;;;20.26;49.25;101234.25;5059392;27;60640;-58
2022/06/27 01:07:34;;;;;;;;;2.00;2.00;;;;;20.24;48.72;101236.19;5048488;28;45951;-58
2022/06/27 01:10:00;;;;;;;;;2.00;2.00;;;;;20.25;49.27;101237.06;5043240;28;45999;-59
2022/06/27 01:12:26;;;;;;;;;5.67;3.00;;;;;20.26;48.94;101231.53;5058570;28;45362;-59
2022/06/27 01:14:51;;;;;;;;;4.00;2.67;;;;;20.27;49.30;101240.47;5052685;28;69414;-58
2022/06/27 01:17:17;;;;;;;;;1.00;0.33;;;;;20.27;49.41;101237.78;5059140;28;75309;-58
2022/06/27 01:19:42;;;;;;;;;2.00;2.00;;;;;20.27;49.46;101237.78;5050256;28;72410;-58
2022/06/27 01:22:09;;;;;;;;;2.00;2.00;;;;;20.24;49.51;101229.94;5051472;28;64332;-58
2022/06/27 01:24:35;;;;;;;;;1.67;1.67;;;;;20.22;48.94;101232.78;5061483;28;45553;-59
2022/06/27 01:27:00;;;;;;;;;6.33;1.67;;;;;20.18;49.63;101244.84;5057856;28;59426;-58
2022/06/27 01:29:26;;;;;;;;;1.00;1.00;;;;;20.13;49.64;101245.22;5045294;28;45317;-58
2022/06/27 01:31:52;;;;;;;;;3.00;3.00;;;;;20.09;49.69;101221.28;5057322;28;45429;-58
2022/06/27 01:34:18;;;;;;;;;1.00;1.00;;;;;20.06;50.13;101216.16;5054406;28;64225;-59
2022/06/27 01:36:46;;;;;;;;;2.67;2.33;;;;;20.03;49.45;101219.97;5053609;28;46066;-59
2022/06/27 01:39:13;;;;;;;;;3.00;3.00;;;;;20.00;49.50;101222.94;5057663;28;45599;-58
2022/06/27 01:41:42;;;;;;;;;2.00;2.00;;;;;19.99;50.03;101234.72;5059062;28;45449;-59
2022/06/27 01:44:09;;;;;;;;;1.67;1.67;;;;;19.97;49.86;101239.38;5066251;28;45537;-59
2022/06/27 01:46:39;;;;;;;;;2.00;2.00;;;;;19.94;49.54;101231.53;5058402;28;46729;-59
2022/06/27 01:49:04;;;;;;;;;2.67;1.00;;;;;19.89;49.61;101242.69;5054500;28;45481;-58
2022/06/27 01:51:30;;;;;;;;;2.67;1.00;;;;;19.89;49.87;101244.56;5059432;28;60952;-58
2022/06/27 01:53:55;;;;;;;;;2.00;2.00;;;;;19.89;49.88;101233.75;5056554;28;45553;-58
2022/06/27 01:56:21;;;;;;;;;2.33;1.33;;;;;19.91;50.16;101229.09;5053827;28;75087;-59
2022/06/27 01:58:46;;;;;;;;;1.00;1.00;;;;;19.93;50.05;101230.69;5052791;28;70494;-58
2022/06/27 02:01:12;;;;;;;;;4.00;2.00;;;;;19.93;50.28;101228.00;5055127;28;45435;-59
2022/06/27 02:03:37;;;;;;;;;1.33;1.33;;;;;19.90;49.66;101216.59;5059688;28;45918;-58
2022/06/27 02:06:03;;;;;;;;;3.00;2.00;;;;;19.89;49.96;101215.69;5055318;28;73379;-59
2022/06/27 02:08:28;;;;;;;;;1.33;1.33;;;;;19.89;50.17;101215.69;5048449;28;45440;-59
2022/06/27 02:10:54;;;;;;;;;2.00;2.00;;;;;19.89;50.19;101215.69;5057539;28;65367;-59
2022/06/27 02:13:19;;;;;;;;;1.00;1.00;;;;;19.88;49.94;101214.00;5046284;28;45393;-59
2022/06/27 02:16:05;;;;;;;;;1.67;1.67;;;;;19.85;50.38;101211.56;5054660;28;59589;-59
2022/06/27 02:18:31;;;;;;;;;2.00;2.00;;;;;19.83;50.30;101205.44;5056375;28;45468;-58
2022/06/27 02:20:57;;;;;;;;;2.00;2.00;;;;;19.80;50.35;101201.13;5060800;28;45541;-58
2022/06/27 02:23:22;;;;;;;;;5.00;2.00;;;;;19.78;50.34;101197.69;5056410;28;49938;-59
2022/06/27 02:25:48;;;;;;;;;3.00;2.00;;;;;19.77;50.43;101211.31;5054715;28;45667;-58
2022/06/27 02:28:15;;;;;;;;;2.00;2.00;;;;;19.76;50.74;101218.53;5055734;28;45417;-58
2022/06/27 02:30:40;;;;;;;;;2.00;2.00;;;;;19.75;50.70;101218.66;5054932;28;45444;-58
2022/06/27 02:33:06;;;;;;;;;2.33;2.33;;;;;19.73;50.45;101220.66;5054595;28;64903;-58
2022/06/27 02:35:31;;;;;;;;;1.00;1.00;;;;;19.70;50.24;101234.38;5051436;28;69306;-58
2022/06/27 02:37:57;;;;;;;;;2.67;2.67;;;;;19.61;50.57;101236.00;5047696;28;62930;-58
2022/06/27 02:40:23;;;;;;;;;1.33;1.33;;;;;19.57;50.89;101230.00;5060216;28;45374;-59
2022/06/27 02:42:51;;;;;;;;;1.00;1.00;;;;;19.56;50.79;101220.19;5042816;28;64108;-59
2022/06/27 02:45:16;;;;;;;;;2.00;2.00;;;;;19.57;50.71;101219.19;5062481;28;66706;-58
2022/06/27 02:47:43;;;;;;;;;3.00;1.33;;;;;19.59;50.80;101228.00;5055249;28;45450;-59
2022/06/27 02:50:10;;;;;;;;;3.00;1.00;;;;;19.60;51.11;101243.22;5052874;28;45450;-58
2022/06/27 02:52:39;;;;;;;;;1.00;1.00;;;;;19.62;50.71;101230.47;5056328;28;45375;-59
2022/06/27 02:55:15;;;;;;;;;4.00;1.00;;;;;19.65;50.92;101241.00;5065161;28;46320;-59
2022/06/27 02:57:45;;;;;;;;;1.33;1.33;;;;;19.66;50.69;101233.78;5054470;28;45352;-58
2022/06/27 03:00:12;;;;;;;;;2.00;2.00;;;;;19.69;50.91;101238.06;5051552;28;45461;-59
2022/06/27 03:02:38;;;;;;;;;1.67;1.00;;;;;19.69;50.24;101228.13;5060889;28;45546;-59
2022/06/27 03:05:04;;;;;;;;;3.00;1.00;;;;;19.69;50.75;101230.81;5067307;28;46331;-58
2022/06/27 03:07:29;;;;;;;;;2.67;1.00;;;;;19.69;50.85;101236.22;5059085;28;45500;-58
2022/06/27 03:10:03;;;;;;;;;1.00;1.00;;;;;19.71;50.42;101233.38;5060060;28;45393;-59
2022/06/27 03:12:29;;;;;;;;;1.00;1.00;;;;;19.72;50.45;101235.13;5061740;28;45714;-58
2022/06/27 03:14:54;;;;;;;;;3.00;1.33;;;;;19.72;50.54;101235.97;5063445;28;61203;-58
2022/06/27 03:17:19;;;;;;;;;1.00;1.00;;;;;19.72;50.24;101233.25;5058485;28;64380;-58
2022/06/27 03:19:45;;;;;;;;;2.00;1.33;;;;;19.72;50.64;101233.25;5052374;28;68923;-59
2022/06/27 03:22:10;;;;;;;;;1.67;1.67;;;;;19.70;50.83;101229.84;5055839;28;45362;-58
2022/06/27 03:24:36;;;;;;;;;1.67;1.00;;;;;19.67;50.26;101233.66;5054636;28;46227;-59
2022/06/27 03:27:01;;;;;;;;;3.00;1.00;;;;;19.66;50.84;101231.94;5052950;28;45492;-58
2022/06/27 03:29:27;;;;;;;;;2.67;2.67;;;;;19.69;51.16;101230.81;5049084;28;45371;-58
2022/06/27 03:31:52;;;;;;;;;2.00;2.00;;;;;19.70;50.93;101227.16;5047611;28;62521;-58
2022/06/27 03:34:17;;;;;;;;;2.00;2.00;;;;;19.69;51.09;101217.34;5052257;28;46742;-58
2022/06/27 03:36:44;;;;;;;;;2.00;2.00;;;;;19.67;51.38;101222.88;5060031;28;45762;-58
2022/06/27 03:39:11;;;;;;;;;3.67;2.00;;;;;19.69;50.98;101228.13;5054178;28;45496;-58
2022/06/27 03:41:37;;;;;;;;;5.00;2.00;;;;;19.70;50.68;101226.28;5054746;28;45386;-58
2022/06/27 03:44:04;;;;;;;;;3.00;2.67;;;;;19.72;50.98;101210.81;5057789;28;45462;-58
2022/06/27 03:46:29;;;;;;;;;3.00;3.00;;;;;19.73;51.10;101201.75;5055001;27;45414;-58
2022/06/27 03:51:38;;;;;;;;;3.33;3.00;;;;;19.70;50.68;101205.56;5056436;28;45391;-58
2022/06/27 03:54:04;;;;;;;;;2.00;2.00;;;;;19.70;51.05;101202.88;5063139;28;46350;-58
2022/06/27 03:56:29;;;;;;;;;3.00;2.00;;;;;19.73;51.22;101209.84;5050777;28;45438;-58
2022/06/27 03:58:55;;;;;;;;;4.00;3.00;;;;;19.72;51.11;101217.06;5052971;28;63915;-58
2022/06/27 04:01:20;;;;;;;;;3.00;3.00;;;;;19.71;50.96;101215.38;5050636;28;65088;-58
2022/06/27 04:03:45;;;;;;;;;2.00;2.00;;;;;19.72;50.67;101218.91;5051903;28;46264;-58
2022/06/27 04:06:11;;;;;;;;;2.33;1.67;;;;;19.73;51.08;101226.03;5058015;28;45312;-58
2022/06/27 04:08:36;;;;;;;;;3.00;2.00;;;;;19.73;51.17;101226.03;5054848;28;65216;-58
2022/06/27 04:11:01;;;;;;;;;2.00;1.67;;;;;19.72;50.67;101235.97;5053183;28;66334;-58
2022/06/27 04:13:27;;;;;;;;;3.00;1.33;;;;;19.74;50.88;101235.84;5061135;28;72197;-58
2022/06/27 04:15:52;;;;;;;;;2.67;2.00;;;;;19.70;50.84;101242.47;5054613;27;47901;-60
2022/06/27 04:18:18;;;;;;;;;3.33;2.33;;;;;19.62;50.76;101248.47;5047709;28;64070;-59
2022/06/27 04:20:43;;;;;;;;;3.00;3.00;;;;;19.61;50.92;101253.03;5048821;28;45421;-59
2022/06/27 04:23:09;;;;;;;;;1.67;1.67;;;;;19.61;51.00;101255.72;5048807;28;46150;-59
2022/06/27 04:25:34;;;;;;;;;2.00;2.00;;;;;19.61;50.90;101263.81;5052547;28;45378;-59
2022/06/27 04:27:59;;;;;;;;;3.00;1.33;;;;;19.62;51.37;101270.94;5050634;28;60872;-59
2022/06/27 04:30:25;;;;;;;;;3.33;1.67;;;;;19.62;51.03;101261.97;5055689;28;63494;-59
2022/06/27 04:32:51;;;;;;;;;3.00;3.00;;;;;19.63;50.97;101269.09;5045220;28;47027;-59
2022/06/27 04:35:17;;;;;;;;;2.33;2.00;;;;;19.61;50.67;101285.41;5056628;28;45488;-59
2022/06/27 04:37:43;;;;;;;;;3.00;2.00;;;;;19.63;50.98;101287.97;5057656;28;45477;-59
2022/06/27 04:40:13;;;;;;;;;1.33;1.33;;;;;19.61;51.11;101296.19;5053058;28;45686;-59
2022/06/27 04:42:40;;;;;;;;;5.33;2.00;;;;;19.59;51.18;101294.59;5055736;28;46974;-58
2022/06/27 04:45:11;;;;;;;;;2.67;2.00;;;;;19.60;51.20;101299.03;5063447;28;45407;-57
2022/06/27 04:47:43;;;;;;;;;2.33;2.00;;;;;19.57;51.06;101305.53;5055480;28;45743;-59
2022/06/27 04:50:10;;;;;;;;;4.67;1.00;;;;;19.58;50.90;101299.16;5049700;28;45438;-59
2022/06/27 04:52:38;;;;;;;;;2.00;2.00;;;;;19.61;50.85;101288.09;5070994;28;46099;-59
2022/06/27 04:55:08;;;;;;;;;1.67;0.67;;;;;19.63;50.99;101288.84;5067288;27;45540;-59
2022/06/27 04:57:35;;;;;;;;;1.00;1.00;;;;;19.65;51.23;101273.38;5063127;28;45418;-59
2022/06/27 05:00:01;;;;;;;;;2.00;2.00;;;;;19.67;51.23;101274.13;5061802;28;45362;-60
2022/06/27 05:02:27;;;;;;;;;2.00;2.00;;;;;19.70;50.71;101277.53;5061221;28;46318;-57
2022/06/27 05:04:53;;;;;;;;;1.33;1.33;;;;;19.69;51.14;101274.00;5043527;28;45366;-59
2022/06/27 05:07:18;;;;;;;;;4.33;1.33;;;;;19.67;50.61;101260.63;5064315;27;45346;-59
2022/06/27 05:09:45;;;;;;;;;2.00;1.00;;;;;19.67;50.90;101260.63;5056493;28;69141;-59
2022/06/27 05:12:10;;;;;;;;;0.67;0.67;;;;;19.64;50.60;101255.47;5061251;28;45383;-60
2022/06/27 05:14:36;;;;;;;;;1.00;1.00;;;;;19.63;50.52;101248.38;5046701;28;66816;-59
2022/06/27 05:17:02;;;;;;;;;4.33;1.67;;;;;19.64;50.42;101250.06;5063421;28;68122;-59
2022/06/27 05:19:27;;;;;;;;;1.00;1.00;;;;;19.65;50.39;101267.97;5041742;28;45647;-59
2022/06/27 05:21:52;;;;;;;;;2.00;2.00;;;;;19.69;50.58;101268.59;5058114;28;45360;-59
2022/06/27 05:24:18;;;;;;;;;1.33;1.33;;;;;19.70;50.52;101261.34;5059094;28;57836;-59
2022/06/27 05:26:46;;;;;;;;;2.33;1.67;;;;;19.66;50.41;101266.16;5061006;28;45657;-59
2022/06/27 05:29:12;;;;;;;;;1.00;1.00;;;;;19.62;50.81;101265.56;5060889;28;45423;-59
2022/06/27 05:31:37;;;;;;;;;2.00;2.00;;;;;19.61;50.89;101253.03;5060825;28;45658;-58
2022/06/27 05:34:02;;;;;;;;;1.00;1.00;;;;;19.64;51.18;101254.63;5052379;28;66604;-59
2022/06/27 05:36:28;;;;;;;;;5.00;3.00;;;;;19.62;51.26;101270.94;5061123;28;60509;-58
2022/06/27 05:38:55;;;;;;;;;3.00;2.00;;;;;19.66;50.88;101277.81;5063832;28;45288;-59
2022/06/27 05:41:21;;;;;;;;;2.00;2.00;;;;;19.71;50.96;101265.78;5046509;28;47217;-58
2022/06/27 05:43:46;;;;;;;;;2.00;2.00;;;;;19.75;50.78;101269.94;5060305;28;46059;-59
2022/06/27 05:46:12;;;;;;;;;3.00;1.33;;;;;19.77;51.10;101276.06;5045800;28;53119;-59
2022/06/27 05:48:38;;;;;;;;;2.33;2.00;;;;;19.75;50.43;101272.63;5067556;28;45425;-60
2022/06/27 05:51:03;;;;;;;;;2.67;1.33;;;;;19.73;50.77;101280.84;5066555;27;46353;-59
2022/06/27 05:53:30;;;;;;;;;2.00;2.00;;;;;19.71;50.65;101290.06;5063235;28;45279;-61
2022/06/27 05:55:55;;;;;;;;;2.33;2.33;;;;;19.69;50.87;101286.66;5060531;27;45467;-59
2022/06/27 05:58:20;;;;;;;;;2.00;2.00;;;;;19.67;51.04;101286.75;5060066;28;53522;-59
2022/06/27 06:00:46;;;;;;;;;2.00;2.00;;;;;19.66;50.72;101296.69;5056113;28;46949;-59
2022/06/27 06:03:12;;;;;;;;;2.00;2.00;;;;;19.69;51.10;101300.97;5051727;28;45383;-60
2022/06/27 06:05:38;;;;;;;;;3.33;2.00;;;;;19.68;51.07;101304.66;5057206;28;45757;-61
2022/06/27 06:08:05;;;;;;;;;2.67;2.67;;;;;19.67;50.98;101298.41;5049880;27;45908;-59
2022/06/27 06:10:33;;;;;;;;;2.67;2.00;;;;;19.70;51.09;101315.31;5063263;28;45600;-60
2022/06/27 06:13:01;;;;;;;;;2.00;1.00;;;;;19.67;50.71;101325.41;5061983;28;46830;-60
2022/06/27 06:15:28;;;;;;;;;4.00;3.00;;;;;19.67;50.74;101332.63;5069092;27;45381;-60
2022/06/27 06:17:54;;;;;;;;;1.67;1.33;;;;;19.65;50.87;101324.66;5064189;27;45458;-59
2022/06/27 06:20:20;;;;;;;;;0.33;0.00;;;;;19.66;51.01;101329.06;5066109;28;45972;-60
2022/06/27 06:22:45;;;;;;;;;5.00;2.00;;;;;19.70;51.05;101308.09;5066165;27;45848;-60
2022/06/27 06:25:11;;;;;;;;;2.33;1.00;;;;;19.72;51.03;101305.28;5061436;27;45778;-60
2022/06/27 06:27:40;;;;;;;;;1.67;1.67;;;;;19.72;50.50;101292.63;5061018;28;45596;-60
2022/06/27 06:30:07;;;;;;;;;1.00;1.00;;;;;19.73;51.03;101318.63;5059875;28;46789;-60
2022/06/27 06:32:34;;;;;;;;;2.00;2.00;;;;;19.74;50.75;101341.94;5052495;28;45351;-61
2022/06/27 06:35:00;;;;;;;;;1.33;1.33;;;;;19.80;50.67;101341.47;5052913;28;45482;-61
2022/06/27 06:37:26;;;;;;;;;2.00;2.00;;;;;19.89;50.85;101339.88;5058711;28;45487;-61
2022/06/27 06:39:52;;;;;;;;;2.00;2.00;;;;;19.93;51.03;101345.88;5050726;28;46342;-61
2022/06/27 06:42:18;;;;;;;;;3.00;2.67;;;;;19.94;50.70;101351.16;5038189;28;45284;-60
2022/06/27 06:44:43;;;;;;;;;4.00;2.00;;;;;19.96;51.07;101357.31;5058325;28;45422;-59
2022/06/27 06:47:09;;;;;;;;;5.33;4.33;;;;;20.03;50.60;101362.22;5053246;28;64046;-59
2022/06/27 06:49:35;;;;;;;;;3.00;3.00;;;;;20.05;50.89;101363.81;5055299;27;45821;-53
2022/06/27 06:52:01;;;;;;;;;3.00;2.67;;;;;20.11;50.82;101371.38;5051280;28;45414;-51
2022/06/27 06:54:31;;;;;;;;;3.67;2.33;;;;;20.20;50.78;101385.97;5047172;28;45725;-52
2022/06/27 06:56:56;;;;;;;;;4.67;3.00;;;;;20.27;50.47;101384.50;5058139;28;45489;-50
2022/06/27 06:59:22;;;;;;;;;4.00;2.00;;;;;20.34;50.76;101387.56;5050004;28;46855;-52
2022/06/27 07:01:48;;;;;;;;;2.00;1.33;;;;;20.39;50.12;101395.25;5059892;28;45326;-52
2022/06/27 07:04:15;;;;;;;;;3.33;2.00;;;;;20.43;50.34;101397.59;5058907;28;54490;-49
2022/06/27 07:06:40;;;;;;;;;2.00;1.33;;;;;20.49;50.25;101407.03;5050909;28;45459;-49
2022/06/27 07:09:06;;;;;;;;;3.00;3.00;;;;;20.52;50.37;101406.78;5047688;28;45395;-53
2022/06/27 07:11:33;;;;;;;;;2.33;2.33;;;;;20.56;50.47;101410.94;5052104;28;45434;-52
2022/06/27 07:13:59;;;;;;;;;2.33;2.33;;;;;20.58;49.70;101414.38;5059578;28;45423;-50
2022/06/27 07:16:25;;;;;;;;;4.00;2.00;;;;;20.59;50.20;101418.78;5057543;28;45422;-52
2022/06/27 07:18:53;;;;;;;;;3.00;3.00;;;;;20.60;49.66;101427.78;5056158;28;47124;-49
2022/06/27 07:21:19;;;;;;;;;1.00;1.00;;;;;20.59;50.06;101431.47;5054021;28;45343;-52
2022/06/27 07:23:46;;;;;;;;;3.00;3.00;;;;;20.55;49.44;101438.09;5054225;28;45379;-51
2022/06/27 07:26:12;;;;;;;;;4.00;3.00;;;;;20.52;49.64;101441.91;5054523;28;45564;-51
2022/06/27 07:28:38;;;;;;;;;2.00;2.00;;;;;20.47;49.97;101439.59;5051467;28;46232;-52
2022/06/27 07:31:08;;;;;;;;;2.67;2.67;;;;;20.44;50.06;101438.97;5057185;28;45362;-50
2022/06/27 07:33:36;;;;;;;;;2.00;2.00;;;;;20.41;49.81;101450.03;5056860;28;45536;-49
2022/06/27 07:36:02;;;;;;;;;4.00;3.00;;;;;20.38;49.80;101447.59;5049561;28;45402;-52
2022/06/27 07:38:27;;;;;;;;;2.00;2.00;;;;;20.29;50.16;101441.94;5052328;28;46874;-50
2022/06/27 07:40:52;;;;;;;;;1.00;1.00;;;;;20.21;50.13;101447.13;5053046;28;45252;-50
2022/06/27 07:43:18;;;;;;;;;1.67;1.67;;;;;20.18;50.43;101431.16;5051789;28;67872;-50
2022/06/27 07:45:44;;;;;;;;;2.00;2.00;;;;;20.13;50.54;101434.22;5055756;28;52174;-50
2022/06/27 07:48:10;;;;;;;;;1.00;1.00;;;;;20.09;50.19;101431.88;5050878;28;45339;-52
2022/06/27 07:50:38;;;;;;;;;2.33;2.33;;;;;20.03;50.20;101438.66;5058631;28;45433;-51
2022/06/27 07:53:20;;;;;;;;;3.00;3.00;;;;;20.04;50.12;101444.91;5057664;28;45406;-49
2022/06/27 07:55:50;;;;;;;;;1.67;1.33;;;;;20.09;50.39;101448.09;5058410;28;45394;-51
2022/06/27 07:58:19;;;;;;;;;2.33;1.33;;;;;20.21;50.10;101447.13;5058370;28;45487;-50
2022/06/27 08:00:47;;;;;;;;;3.00;2.33;;;;;20.53;50.21;101451.72;5057912;28;45302;-51
2022/06/27 08:06:00;;;;;;;;;2.67;2.00;;;;;21.09;49.31;101447.16;5045069;28;45406;-50
2022/06/27 08:08:27;;;;;;;;;4.00;3.00;;;;;21.20;48.58;101457.06;5049220;28;46980;-51
2022/06/27 08:10:53;;;;;;;;;2.00;2.00;;;;;21.25;48.37;101450.28;5057138;28;45283;-49
2022/06/27 08:13:19;;;;;;;;;3.33;2.67;;;;;21.29;48.91;101448.19;5057978;28;45451;-49
2022/06/27 08:15:47;;;;;;;;;3.67;2.33;;;;;21.28;48.21;101451.88;5057706;28;45561;-50
2022/06/27 08:18:16;;;;;;;;;5.33;3.00;;;;;21.29;48.38;101454.44;5057671;28;46059;-50
2022/06/27 08:20:42;;;;;;;;;1.00;1.00;;;;;21.29;48.03;101464.41;5056872;28;45458;-50
2022/06/27 08:23:08;;;;;;;;;2.00;2.00;;;;;21.27;47.67;101467.22;5041281;28;45501;-50
2022/06/27 08:25:34;;;;;;;;;1.67;1.67;;;;;21.22;47.80;101472.16;5041182;28;45341;-50
2022/06/27 08:28:00;;;;;;;;;1.33;1.33;;;;;21.12;47.85;101480.22;5044524;28;46246;-51
2022/06/27 08:30:26;;;;;;;;;4.00;2.00;;;;;20.99;48.33;101504.72;5050511;28;45248;-49
2022/06/27 08:32:55;;;;;;;;;1.67;1.33;;;;;20.92;48.98;101527.84;5052247;28;45542;-51
2022/06/27 08:35:21;;;;;;;;;5.67;3.00;;;;;20.87;49.99;101526.50;5050547;28;45564;-49
2022/06/27 08:37:47;;;;;;;;;3.00;1.00;;;;;20.79;50.01;101527.13;5061822;28;46939;-49
2022/06/27 08:40:15;;;;;;;;;4.00;2.00;;;;;20.72;50.58;101504.31;5060666;28;45375;-49
2022/06/27 08:42:40;;;;;;;;;0.33;0.33;;;;;20.65;50.72;101488.56;5075180;27;45345;-50
2022/06/27 08:45:08;;;;;;;;;1.00;1.00;;;;;20.65;50.83;101468.78;5060059;28;45460;-49
2022/06/27 08:47:34;;;;;;;;;2.00;1.00;;;;;20.88;51.51;101466.06;5056163;28;46418;-50
2022/06/27 08:49:59;;;;;;;;;3.50;1.25;;;;;21.29;51.46;101454.44;5056862;28;67771;-49
2022/06/27 08:52:26;;;;;;;;;1.00;1.00;;;;;21.72;50.86;101457.16;5057038;28;65110;-49
2022/06/27 08:54:52;;;;;;;;;1.00;1.00;;;;;22.00;50.10;101462.88;5057972;28;45548;-52
2022/06/27 08:57:18;;;;;;;;;0.75;0.75;;;;;22.30;49.37;101460.13;5057243;28;46885;-51
2022/06/27 08:59:44;;;;;;;;;0.00;0.00;;;;;22.79;48.78;101462.97;5057728;28;45453;-54
2022/06/27 09:02:10;;;;;;;;;0.25;0.25;;;;;23.33;48.33;101459.88;5057463;28;45355;-52
2022/06/27 09:04:58;;;;;;;;;1.00;1.00;;;;;23.60;47.58;101453.69;5057194;28;45784;-52
2022/06/27 09:07:24;;;;;;;;;0.25;0.25;;;;;23.62;47.53;101456.25;5056008;28;46222;-53
2022/06/27 09:09:49;;;;;;;;;0.75;0.75;;;;;23.54;47.13;101465.13;5057410;28;45546;-52
2022/06/27 09:12:15;;;;;;;;;1.75;1.75;;;;;23.44;47.14;101480.56;5057696;28;45393;-53
2022/06/27 09:14:43;;;;;;;;;1.75;1.75;;;;;23.31;47.05;101474.59;5055926;28;67364;-52
2022/06/27 09:17:14;;;;;;;;;1.50;1.25;;;;;23.35;46.67;101474.16;5057419;28;46248;-53
2022/06/27 09:19:56;;;;;;;;;0.00;0.00;;;;;23.68;46.55;101471.13;5056520;28;46137;-53
2022/06/27 09:22:23;;;;;;;;;0.00;0.00;;;;;24.14;46.26;101472.13;5057604;28;45801;-50
2022/06/27 09:25:04;;;;;;;;;1.00;1.00;;;;;24.72;45.15;101476.41;5057467;28;45462;-51
2022/06/27 09:27:44;;;;;;;;;0.00;0.00;;;;;25.31;43.80;101478.66;5056401;28;46517;-53
2022/06/27 09:30:21;;;;;;;;;0.00;0.00;;;;;25.72;42.40;101468.13;5056545;28;45735;-52
2022/06/27 09:33:01;;;;;;;;;2.50;1.00;;;;;26.17;43.00;101473.50;5055080;28;45299;-53
2022/06/27 09:35:32;;;;;;;;;1.50;1.50;;;;;26.72;42.11;101461.25;5050577;28;45393;-53
2022/06/27 09:38:07;;;;;;;;;2.25;2.25;;;;;27.27;42.06;101464.38;5043486;28;45518;-53
2022/06/27 09:40:33;;;;;;;;;1.75;1.75;;;;;27.71;40.28;101464.03;5061572;28;45680;-54
2022/06/27 09:42:59;;;;;;;;;1.00;1.00;;;;;28.15;40.47;101465.47;5059855;28;45722;-53
2022/06/27 09:45:29;;;;;;;;;2.00;0.75;;;;;28.58;38.59;101476.88;5058446;28;50931;-53
2022/06/27 09:48:02;;;;;;;;;0.00;0.00;;;;;28.96;37.68;101477.00;5060354;28;45417;-53
2022/06/27 09:50:31;;;;;;;;;0.00;0.00;;;;;29.31;37.46;101480.19;5057080;28;45408;-54
2022/06/27 09:52:57;;;;;;;;;0.75;0.75;;;;;29.57;36.36;101481.69;5059598;28;45385;-54
2022/06/27 09:55:23;;;;;;;;;0.50;0.50;;;;;29.81;35.68;101474.22;5057441;28;45347;-54
2022/06/27 09:57:50;;;;;;;;;1.00;1.00;;;;;30.07;33.84;101467.47;5060107;28;47197;-55
2022/06/27 10:00:16;;;;;;;;;0.00;0.00;;;;;30.33;33.69;101472.44;5060518;28;45365;-54
2022/06/27 10:02:41;;;;;;;;;0.50;0.00;;;;;30.52;34.94;101473.78;5059431;28;45405;-55
2022/06/27 10:05:07;;;;;;;;;0.00;0.00;;;;;30.79;34.26;101471.31;5060301;28;64966;-55
2022/06/27 10:07:34;;;;;;;;;1.00;1.00;;;;;31.11;32.70;101477.38;5060072;28;46101;-54
2022/06/27 10:09:59;;;;;;;;;1.00;1.00;;;;;31.42;29.74;101470.66;5059215;28;45750;-55
2022/06/27 10:12:31;;;;;;;;;1.25;0.00;;;;;31.58;31.20;101470.34;5059130;28;65441;-54
2022/06/27 10:15:14;;;;;;;;;1.00;0.00;;;;;31.72;28.30;101464.97;5060837;28;45489;-55
2022/06/27 10:17:45;;;;;;;;;0.50;0.50;;;;;31.70;27.51;101469.84;5047751;28;46360;-53
2022/06/27 10:20:38;;;;;;;;;1.00;0.00;;;;;31.78;28.56;101469.69;5058647;28;45417;-55
2022/06/27 10:23:03;;;;;;;;;0.75;0.75;;;;;31.71;26.90;101472.38;5059647;28;45658;-55
2022/06/27 10:25:29;;;;;;;;;0.75;0.75;;;;;31.74;27.61;101460.97;5059305;28;45675;-55
2022/06/27 10:30:47;;;;;;;;;0.00;0.00;;;;;32.09;26.23;101466.47;5059032;28;45362;-55
2022/06/27 10:33:18;;;;;;;;;1.50;0.00;;;;;32.27;27.45;101482.47;5057099;28;45547;-56
2022/06/27 10:38:40;;;;;;;;;0.00;0.00;;;;;32.79;25.87;101479.28;5049779;28;46019;-57
2022/06/27 10:41:10;;;;;;;;;2.00;0.75;;;;;33.04;25.62;101474.03;5056205;28;45389;-56
2022/06/27 10:43:35;;;;;;;;;1.00;0.00;;;;;33.20;25.10;101480.19;5059711;28;45404;-56
2022/06/27 10:46:00;;;;;;;;;0.25;0.25;;;;;33.40;25.66;101480.19;5060109;28;45794;-56
2022/06/27 10:48:45;;;;;;;;;1.00;0.75;;;;;33.65;25.78;101472.13;5056583;28;45812;-56
2022/06/27 10:51:26;;;;;;;;;2.50;1.50;;;;;33.74;24.27;101475.50;5044330;28;45610;-56
2022/06/27 10:54:02;;;;;;;;;2.00;0.25;;;;;33.71;24.81;101471.25;5052218;28;45375;-56
2022/06/27 10:56:28;;;;;;;;;0.00;0.00;;;;;33.64;24.90;101478.72;5051273;28;45560;-56
2022/06/27 10:58:53;;;;;;;;;0.00;0.00;;;;;33.55;24.19;101478.06;5053670;28;46054;-56
2022/06/27 11:01:19;;;;;;;;;1.50;1.50;;;;;33.47;24.49;101483.81;5058532;28;67720;-57
2022/06/27 11:03:45;;;;;;;;;0.00;0.00;;;;;33.34;23.80;101475.53;5059558;28;45781;-56
2022/06/27 11:06:13;;;;;;;;;0.00;0.00;;;;;33.30;24.84;101475.13;5058005;28;45391;-53
2022/06/27 11:08:40;;;;;;;;;1.75;1.75;;;;;33.47;25.06;101481.06;5054895;28;46242;-56
2022/06/27 11:11:05;;;;;;;;;2.25;0.75;;;;;33.59;22.79;101467.47;5059014;28;45510;-56
2022/06/27 11:13:41;;;;;;;;;2.50;1.75;;;;;33.68;22.65;101465.34;5053835;28;45448;-55
2022/06/27 11:16:10;;;;;;;;;2.50;0.75;;;;;33.78;22.26;101472.09;5039896;28;45462;-57
2022/06/27 11:18:42;;;;;;;;;0.75;0.75;;;;;33.96;22.35;101462.31;5050624;28;46400;-56
2022/06/27 11:21:13;;;;;;;;;0.00;0.00;;;;;34.11;23.14;101460.16;5051156;28;45495;-56
2022/06/27 11:23:53;;;;;;;;;0.00;0.00;;;;;34.29;22.74;101461.38;5056140;28;45455;-56
2022/06/27 11:26:19;;;;;;;;;0.00;0.00;;;;;34.38;22.25;101460.06;5053416;28;45486;-56
2022/06/27 11:34:13;;;;;;;;;1.75;1.75;;;;;34.55;21.78;101462.31;5043290;28;45256;-56
2022/06/27 11:36:39;;;;;;;;;1.25;1.25;;;;;34.65;21.38;101470.97;5057308;28;45586;-56
2022/06/27 11:39:05;;;;;;;;;0.00;0.00;;;;;34.66;21.08;101467.13;5062519;28;46563;-56
2022/06/27 11:41:30;;;;;;;;;0.50;0.50;;;;;34.45;20.85;101471.91;5054298;28;45518;-56